This is the latest recevied weather packets stored in our database for station/object WX7FGZ-5. If no packets are shown the sender has not sent any weather packets the latest 10 day(s).
| Time | Temp. | Humidity | Pressure | Rain* | Wind** | Luminosity | Snow |
|---|---|---|---|---|---|---|---|
| 1777686756 | 12.78° C | 28% | 1021.6 hPa | 0 mm | - | 11 W/m² | - |
| 1777686455 | 12.78° C | 28% | 1021.5 hPa | 0 mm | - | 21 W/m² | - |
| 1777685556 | 13.33° C | 27% | 1021.3 hPa | 0 mm | - | 39 W/m² | - |
| 1777685255 | 13.89° C | 26% | 1021.2 hPa | 0 mm | - | 47 W/m² | - |
| 1777684955 | 14.44° C | 24% | 1021.2 hPa | 0 mm | - | 58 W/m² | - |
| 1777684656 | 14.44° C | 24% | 1021.2 hPa | 0 mm | - | 65 W/m² | - |
| 1777684355 | 14.44° C | 24% | 1021.3 hPa | 0 mm | - | 72 W/m² | - |
| 1777683756 | 14.44° C | 23% | 1021.2 hPa | 0 mm | - | 95 W/m² | - |
| 1777683459 | 14.44° C | 24% | 1021.2 hPa | 0 mm | - | 97 W/m² | - |
| 1777683201 | 15° C | 23% | 1021 hPa | 0 mm | - | 97 W/m² | - |
| 1777683162 | 15° C | 23% | 1021.1 hPa | 0 mm | - | 107 W/m² | - |
| 1777682855 | 15° C | 23% | 1021 hPa | 0 mm | - | 97 W/m² | - |
| 1777682255 | 15.56° C | 22% | 1021.1 hPa | 0 mm | - | 113 W/m² | - |
| 1777681955 | 16.11° C | 22% | 1020.9 hPa | 0 mm | - | 139 W/m² | - |
| 1777681656 | 16.11° C | 21% | 1020.2 hPa | 0 mm | - | 475 W/m² | - |
| 1777681357 | 16.67° C | 20% | 1020 hPa | 0 mm | - | 301 W/m² | - |
| 1777681059 | 16.11° C | 21% | 1020 hPa | 0 mm | - | 526 W/m² | - |
| 1777679711 | 15.56° C | 20% | 1020.7 hPa | 0 mm | - | 169 W/m² | - |
| 1777679683 | 16.11° C | 20% | 1020.5 hPa | 0 mm | - | 171 W/m² | - |
| 1777679411 | 16.11° C | 20% | 1020.5 hPa | 0 mm | - | 171 W/m² | - |
| 1777678812 | 16.67° C | 19% | 1020.5 hPa | 0 mm | - | 454 W/m² | - |
| 1777677611 | 17.78° C | 18% | 1020.4 hPa | 0 mm | - | 738 W/m² | - |
| 1777677011 | 17.22° C | 19% | 1020.3 hPa | 0 mm | - | 786 W/m² | - |
| 1777676711 | 16.67° C | 19% | 1020.2 hPa | 0 mm | - | 503 W/m² | - |
| 1777676419 | 16.67° C | 19% | 1020.1 hPa | 0 mm | - | 388 W/m² | - |
* Rain latest hour (hover to see other rain measurements)
** Current wind speed in m/s (hover to see current wind gust speed)